PWSweather.com
Personal Weather Stations
Station Observations
FARMTALK
Wv, Procious, WV 25164

WvProcious, WV 25164

Lat: 38.483056, Lon: -81.159722

Elevation: 784

Station Type: Weatherwise 1090

www.fitzweather.com

High Low Average
Temperature 35.6°F2.0°C 24.4°F-4.2°C 30.0°F-1.1°C
Dew Point 30.1°F-1.1°C 20.0°F-6.7°C 24.7°F-4.1°C
Winds 8.8 mph 14.2 kmh Calm Calm 3.0 mph E4.8 kmh E
Wind Gusts 14.5 mph23.3 kmh -- 5.0 mph8.0 kmh
Humidity 97% 53% 81%
Pressure 30.04 in1017.3 mb 29.95 in1014.2 mb -
Precipitation 0.06 in1.5 mm - -
Hour Temp Dew Point Humidity Winds Wind Gusts Pressure Precip Precip Rate Daily Precip Total
12:00 AM 31.1°F-0.5°C 30.6°F-0.8°C 98% 1.9 mph E3.1 kmh E 3.1 mph5.0 kmh 29.98 in1015.2 mb 0.00 in0.0 mm 0.00 in0.0 mm 0.00 in0.0 mm
12:10 AM 31.3°F-0.4°C 30.5°F-0.8°C 97% 2.4 mph E3.9 kmh E 3.8 mph6.1 kmh 29.98 in1015.2 mb 0.00 in0.0 mm 0.00 in0.0 mm 0.00 in0.0 mm
12:20 AM 31.1°F-0.5°C 30.4°F-0.9°C 97% 2.2 mph NE3.5 kmh NE 3.8 mph6.1 kmh 29.98 in1015.2 mb 0.00 in0.0 mm 0.00 in0.0 mm 0.00 in0.0 mm
12:30 AM 31.1°F-0.5°C 30.1°F-1.1°C 96% 1.1 mph N1.8 kmh N 2.2 mph3.5 kmh 29.98 in1015.2 mb 0.00 in0.0 mm 0.00 in0.0 mm 0.00 in0.0 mm
12:40 AM 31.1°F-0.5°C 30.1°F-1.1°C 96% 1.3 mph NNE2.1 kmh NNE 2.2 mph3.5 kmh 29.98 in1015.2 mb 0.00 in0.0 mm 0.00 in0.0 mm 0.00 in0.0 mm
12:50 AM 31.1°F-0.5°C 30.1°F-1.1°C 96% 1.8 mph NE2.9 kmh NE 3.1 mph5.0 kmh 29.98 in1015.2 mb 0.00 in0.0 mm 0.00 in0.0 mm 0.00 in0.0 mm
01:00 AM 31.1°F-0.5°C 30.1°F-1.1°C 96% 1.6 mph NE2.6 kmh NE 2.2 mph3.5 kmh 29.98 in1015.2 mb 0.00 in0.0 mm 0.00 in0.0 mm 0.00 in0.0 mm
01:10 AM 30.9°F-0.6°C 29.7°F-1.3°C 95% 2.1 mph ENE3.4 kmh ENE 3.8 mph6.1 kmh 29.97 in1014.9 mb 0.00 in0.0 mm 0.00 in0.0 mm 0.00 in0.0 mm
01:20 AM 30.6°F-0.8°C 29.1°F-1.6°C 94% 0.8 mph WNW1.3 kmh WNW 2.2 mph3.5 kmh 29.97 in1014.9 mb 0.00 in0.0 mm 0.00 in0.0 mm 0.00 in0.0 mm
01:30 AM 29.8°F-1.2°C 28.3°F-2.1°C 94% 0.5 mph ENE0.8 kmh ENE 2.2 mph3.5 kmh 29.98 in1015.2 mb 0.00 in0.0 mm 0.00 in0.0 mm 0.00 in0.0 mm
01:40 AM 29.7°F-1.3°C 28.4°F-2.0°C 95% 0.7 mph E1.1 kmh E 3.1 mph5.0 kmh 29.98 in1015.2 mb 0.00 in0.0 mm 0.00 in0.0 mm 0.00 in0.0 mm
01:50 AM 29.5°F-1.4°C 28.2°F-2.1°C 95% 0.5 mph NW0.8 kmh NW 0.7 mph1.1 kmh 29.98 in1015.2 mb 0.00 in0.0 mm 0.00 in0.0 mm 0.00 in0.0 mm
02:00 AM 28.9°F-1.7°C 28.0°F-2.2°C 96% 0.2 mph NW0.3 kmh NW 0.7 mph1.1 kmh 29.97 in1014.9 mb 0.00 in0.0 mm 0.00 in0.0 mm 0.00 in0.0 mm
02:10 AM 28.8°F-1.8°C 27.8°F-2.3°C 96% 0.2 mph N0.3 kmh N 0.7 mph1.1 kmh 29.98 in1015.2 mb 0.00 in0.0 mm 0.00 in0.0 mm 0.00 in0.0 mm
02:20 AM 28.9°F-1.7°C 28.2°F-2.1°C 97% 0.1 mph N0.2 kmh N 0.7 mph1.1 kmh 29.97 in1014.9 mb 0.00 in0.0 mm 0.00 in0.0 mm 0.00 in0.0 mm
02:30 AM 29.1°F-1.6°C 28.4°F-2.0°C 97% 0.2 mph W0.3 kmh W 0.7 mph1.1 kmh 29.98 in1015.2 mb 0.00 in0.0 mm 0.00 in0.0 mm 0.00 in0.0 mm
02:40 AM 29.3°F-1.5°C 28.6°F-1.9°C 97% 0.4 mph WSW0.6 kmh WSW 1.6 mph2.6 kmh 29.97 in1014.9 mb 0.00 in0.0 mm 0.00 in0.0 mm 0.00 in0.0 mm
02:50 AM 29.5°F-1.4°C 28.7°F-1.8°C 97% 1.0 mph SW1.6 kmh SW 1.6 mph2.6 kmh 29.97 in1014.9 mb 0.00 in0.0 mm 0.00 in0.0 mm 0.00 in0.0 mm
03:00 AM 29.8°F-1.2°C 28.6°F-1.9°C 95% 1.7 mph NE2.7 kmh NE 3.1 mph5.0 kmh 29.97 in1014.9 mb 0.00 in0.0 mm 0.00 in0.0 mm 0.00 in0.0 mm
03:10 AM 30.0°F-1.1°C 28.3°F-2.1°C 93% 2.0 mph NE3.2 kmh NE 2.2 mph3.5 kmh 29.97 in1014.9 mb 0.00 in0.0 mm 0.00 in0.0 mm 0.00 in0.0 mm
03:20 AM 30.0°F-1.1°C 28.0°F-2.2°C 92% 2.5 mph NE4.0 kmh NE 3.8 mph6.1 kmh 29.97 in1014.9 mb 0.00 in0.0 mm 0.00 in0.0 mm 0.00 in0.0 mm
03:30 AM 30.0°F-1.1°C 27.5°F-2.5°C 90% 3.0 mph ESE4.8 kmh ESE 5.4 mph8.7 kmh 29.97 in1014.9 mb 0.00 in0.0 mm 0.00 in0.0 mm 0.00 in0.0 mm
03:40 AM 30.0°F-1.1°C 27.5°F-2.5°C 90% 3.4 mph ENE5.5 kmh ENE 6.0 mph9.7 kmh 29.96 in1014.6 mb 0.00 in0.0 mm 0.00 in0.0 mm 0.00 in0.0 mm
03:50 AM 29.8°F-1.2°C 27.3°F-2.6°C 90% 2.9 mph ENE4.7 kmh ENE 3.8 mph6.1 kmh 29.95 in1014.2 mb 0.00 in0.0 mm 0.00 in0.0 mm 0.00 in0.0 mm
04:00 AM 29.7°F-1.3°C 27.1°F-2.7°C 90% 3.2 mph ENE5.1 kmh ENE 4.5 mph7.2 kmh 29.95 in1014.2 mb 0.00 in0.0 mm 0.00 in0.0 mm 0.00 in0.0 mm
04:10 AM 29.5°F-1.4°C 27.2°F-2.7°C 91% 3.0 mph ESE4.8 kmh ESE 3.8 mph6.1 kmh 29.95 in1014.2 mb 0.00 in0.0 mm 0.00 in0.0 mm 0.00 in0.0 mm
04:20 AM 29.3°F-1.5°C 27.5°F-2.5°C 93% 2.5 mph ENE4.0 kmh ENE 4.5 mph7.2 kmh 29.95 in1014.2 mb 0.00 in0.0 mm 0.00 in0.0 mm 0.00 in0.0 mm
04:30 AM 28.9°F-1.7°C 27.4°F-2.6°C 94% 1.8 mph ENE2.9 kmh ENE 3.1 mph5.0 kmh 29.96 in1014.6 mb 0.00 in0.0 mm 0.00 in0.0 mm 0.00 in0.0 mm
04:40 AM 28.8°F-1.8°C 27.3°F-2.6°C 94% 2.1 mph E3.4 kmh E 3.1 mph5.0 kmh 29.95 in1014.2 mb 0.00 in0.0 mm 0.00 in0.0 mm 0.00 in0.0 mm
04:50 AM 28.8°F-1.8°C 27.5°F-2.5°C 95% 2.1 mph E3.4 kmh E 3.1 mph5.0 kmh 29.95 in1014.2 mb 0.00 in0.0 mm 0.00 in0.0 mm 0.00 in0.0 mm
05:00 AM 28.9°F-1.7°C 27.4°F-2.6°C 94% 2.5 mph NE4.0 kmh NE 4.5 mph7.2 kmh 29.96 in1014.6 mb 0.00 in0.0 mm 0.00 in0.0 mm 0.00 in0.0 mm
05:10 AM 28.9°F-1.7°C 26.9°F-2.8°C 92% 2.1 mph NE3.4 kmh NE 2.2 mph3.5 kmh 29.96 in1014.6 mb 0.00 in0.0 mm 0.00 in0.0 mm 0.00 in0.0 mm
05:20 AM 28.9°F-1.7°C 26.9°F-2.8°C 92% 3.4 mph E5.5 kmh E 6.0 mph9.7 kmh 29.96 in1014.6 mb 0.00 in0.0 mm 0.00 in0.0 mm 0.00 in0.0 mm
05:30 AM 29.1°F-1.6°C 26.6°F-3.0°C 90% 3.2 mph E5.1 kmh E 5.4 mph8.7 kmh 29.96 in1014.6 mb 0.00 in0.0 mm 0.00 in0.0 mm 0.00 in0.0 mm
05:40 AM 28.9°F-1.7°C 26.4°F-3.1°C 90% 3.9 mph NE6.3 kmh NE 6.0 mph9.7 kmh 29.96 in1014.6 mb 0.00 in0.0 mm 0.00 in0.0 mm 0.00 in0.0 mm
05:50 AM 28.6°F-1.9°C 26.3°F-3.2°C 91% 2.9 mph E4.7 kmh E 4.5 mph7.2 kmh 29.96 in1014.6 mb 0.00 in0.0 mm 0.00 in0.0 mm 0.00 in0.0 mm
06:00 AM 28.4°F-2.0°C 26.1°F-3.3°C 91% 2.0 mph E3.2 kmh E 3.1 mph5.0 kmh 29.96 in1014.6 mb 0.00 in0.0 mm 0.00 in0.0 mm 0.00 in0.0 mm
06:10 AM 28.6°F-1.9°C 26.0°F-3.3°C 90% 3.4 mph E5.5 kmh E 4.5 mph7.2 kmh 29.97 in1014.9 mb 0.00 in0.0 mm 0.00 in0.0 mm 0.00 in0.0 mm
06:20 AM 28.6°F-1.9°C 25.8°F-3.4°C 89% 3.1 mph E5.0 kmh E 4.5 mph7.2 kmh 29.97 in1014.9 mb 0.00 in0.0 mm 0.00 in0.0 mm 0.00 in0.0 mm
06:30 AM 28.4°F-2.0°C 25.9°F-3.4°C 90% 2.8 mph NE4.5 kmh NE 3.8 mph6.1 kmh 29.96 in1014.6 mb 0.00 in0.0 mm 0.00 in0.0 mm 0.00 in0.0 mm
06:40 AM 28.0°F-2.2°C 25.5°F-3.6°C 90% 3.7 mph ENE6.0 kmh ENE 4.5 mph7.2 kmh 29.97 in1014.9 mb 0.00 in0.0 mm 0.00 in0.0 mm 0.00 in0.0 mm
06:50 AM 28.0°F-2.2°C 25.2°F-3.8°C 89% 2.7 mph NE4.3 kmh NE 4.5 mph7.2 kmh 29.98 in1015.2 mb 0.00 in0.0 mm 0.00 in0.0 mm 0.00 in0.0 mm
07:00 AM 28.0°F-2.2°C 25.2°F-3.8°C 89% 4.0 mph ESE6.4 kmh ESE 7.6 mph12.2 kmh 29.98 in1015.2 mb 0.00 in0.0 mm 0.00 in0.0 mm 0.00 in0.0 mm
07:10 AM 28.0°F-2.2°C 25.2°F-3.8°C 89% 1.6 mph NNE2.6 kmh NNE 2.2 mph3.5 kmh 29.98 in1015.2 mb 0.00 in0.0 mm 0.00 in0.0 mm 0.00 in0.0 mm
07:20 AM 27.9°F-2.3°C 25.3°F-3.7°C 90% 3.0 mph NE4.8 kmh NE 7.6 mph12.2 kmh 29.98 in1015.2 mb 0.00 in0.0 mm 0.00 in0.0 mm 0.00 in0.0 mm
07:30 AM 27.9°F-2.3°C 25.1°F-3.8°C 89% 3.4 mph E5.5 kmh E 5.4 mph8.7 kmh 29.98 in1015.2 mb 0.00 in0.0 mm 0.00 in0.0 mm 0.00 in0.0 mm
07:40 AM 27.9°F-2.3°C 24.5°F-4.2°C 87% 4.3 mph ENE6.9 kmh ENE 6.9 mph11.1 kmh 29.99 in1015.6 mb 0.00 in0.0 mm 0.00 in0.0 mm 0.00 in0.0 mm
07:50 AM 27.5°F-2.5°C 25.0°F-3.9°C 90% 3.2 mph E5.1 kmh E 5.4 mph8.7 kmh 29.99 in1015.6 mb 0.00 in0.0 mm 0.00 in0.0 mm 0.00 in0.0 mm
08:00 AM 27.1°F-2.7°C 25.1°F-3.8°C 92% 2.8 mph ENE4.5 kmh ENE 4.5 mph7.2 kmh 29.99 in1015.6 mb 0.00 in0.0 mm 0.00 in0.0 mm 0.00 in0.0 mm
08:10 AM 27.3°F-2.6°C 25.1°F-3.8°C 91% 2.9 mph NNE4.7 kmh NNE 3.8 mph6.1 kmh 29.99 in1015.6 mb 0.00 in0.0 mm 0.00 in0.0 mm 0.00 in0.0 mm
08:20 AM 27.3°F-2.6°C 25.1°F-3.8°C 91% 2.6 mph SE4.2 kmh SE 3.8 mph6.1 kmh 30.00 in1015.9 mb 0.00 in0.0 mm 0.00 in0.0 mm 0.00 in0.0 mm
08:30 AM 27.5°F-2.5°C 25.0°F-3.9°C 90% 3.0 mph ESE4.8 kmh ESE 3.8 mph6.1 kmh 30.00 in1015.9 mb 0.00 in0.0 mm 0.00 in0.0 mm 0.00 in0.0 mm
08:40 AM 27.7°F-2.4°C 25.2°F-3.8°C 90% 2.5 mph ENE4.0 kmh ENE 3.8 mph6.1 kmh 30.01 in1016.3 mb 0.00 in0.0 mm 0.00 in0.0 mm 0.00 in0.0 mm
08:50 AM 27.5°F-2.5°C 25.0°F-3.9°C 90% 3.2 mph ENE5.1 kmh ENE 4.5 mph7.2 kmh 30.01 in1016.3 mb 0.00 in0.0 mm 0.00 in0.0 mm 0.00 in0.0 mm
09:00 AM 27.1°F-2.7°C 25.4°F-3.7°C 93% 3.4 mph E5.5 kmh E 4.5 mph7.2 kmh 30.01 in1016.3 mb 0.00 in0.0 mm 0.00 in0.0 mm 0.00 in0.0 mm
09:10 AM 27.1°F-2.7°C 25.7°F-3.5°C 94% 3.6 mph NE5.8 kmh NE 4.5 mph7.2 kmh 30.02 in1016.6 mb 0.00 in0.0 mm 0.00 in0.0 mm 0.00 in0.0 mm
09:20 AM 27.5°F-2.5°C 26.0°F-3.3°C 94% 3.7 mph E6.0 kmh E 5.4 mph8.7 kmh 30.02 in1016.6 mb 0.00 in0.0 mm 0.00 in0.0 mm 0.00 in0.0 mm
09:30 AM 28.2°F-2.1°C 26.2°F-3.2°C 92% 3.3 mph E5.3 kmh E 5.4 mph8.7 kmh 30.02 in1016.6 mb 0.00 in0.0 mm 0.00 in0.0 mm 0.00 in0.0 mm
09:40 AM 28.2°F-2.1°C 25.7°F-3.5°C 90% 4.6 mph E7.4 kmh E 7.6 mph12.2 kmh 30.03 in1016.9 mb 0.00 in0.0 mm 0.00 in0.0 mm 0.00 in0.0 mm
09:50 AM 28.2°F-2.1°C 25.1°F-3.8°C 88% 4.0 mph E6.4 kmh E 5.4 mph8.7 kmh 30.03 in1016.9 mb 0.00 in0.0 mm 0.00 in0.0 mm 0.00 in0.0 mm
10:00 AM 28.4°F-2.0°C 25.0°F-3.9°C 87% 3.0 mph E4.8 kmh E 3.8 mph6.1 kmh 30.03 in1016.9 mb 0.00 in0.0 mm 0.00 in0.0 mm 0.00 in0.0 mm
10:10 AM 28.4°F-2.0°C 25.3°F-3.7°C 88% 3.5 mph E5.6 kmh E 3.8 mph6.1 kmh 30.03 in1016.9 mb 0.00 in0.0 mm 0.00 in0.0 mm 0.00 in0.0 mm
10:20 AM 28.9°F-1.7°C 25.9°F-3.4°C 88% 2.8 mph NE4.5 kmh NE 4.5 mph7.2 kmh 30.03 in1016.9 mb 0.00 in0.0 mm 0.00 in0.0 mm 0.00 in0.0 mm
10:30 AM 29.3°F-1.5°C 25.7°F-3.5°C 86% 3.4 mph NE5.5 kmh NE 5.4 mph8.7 kmh 30.04 in1017.3 mb 0.00 in0.0 mm 0.00 in0.0 mm 0.00 in0.0 mm
10:40 AM 29.7°F-1.3°C 25.7°F-3.5°C 85% 2.8 mph NE4.5 kmh NE 5.4 mph8.7 kmh 30.04 in1017.3 mb 0.00 in0.0 mm 0.00 in0.0 mm 0.00 in0.0 mm
10:50 AM 29.8°F-1.2°C 25.6°F-3.6°C 84% 5.1 mph E8.2 kmh E 7.6 mph12.2 kmh 30.04 in1017.3 mb 0.00 in0.0 mm 0.00 in0.0 mm 0.00 in0.0 mm
11:00 AM 29.7°F-1.3°C 25.4°F-3.7°C 84% 3.3 mph NE5.3 kmh NE 6.0 mph9.7 kmh 30.04 in1017.3 mb 0.00 in0.0 mm 0.00 in0.0 mm 0.00 in0.0 mm
11:10 AM 29.1°F-1.6°C 25.5°F-3.6°C 86% 4.5 mph NE7.2 kmh NE 6.0 mph9.7 kmh 30.04 in1017.3 mb 0.00 in0.0 mm 0.00 in0.0 mm 0.00 in0.0 mm
11:20 AM 31.5°F-0.3°C 25.7°F-3.5°C 79% 5.6 mph ENE9.0 kmh ENE 7.6 mph12.2 kmh 30.04 in1017.3 mb 0.00 in0.0 mm 0.00 in0.0 mm 0.00 in0.0 mm
11:30 AM 32.0°F0.0°C 25.0°F-3.9°C 75% 5.0 mph E8.0 kmh E 8.3 mph13.4 kmh 30.04 in1017.3 mb 0.00 in0.0 mm 0.00 in0.0 mm 0.00 in0.0 mm
11:40 AM 30.9°F-0.6°C 24.6°F-4.1°C 77% 3.6 mph NE5.8 kmh NE 5.4 mph8.7 kmh 30.04 in1017.3 mb 0.00 in0.0 mm 0.00 in0.0 mm 0.00 in0.0 mm
11:50 AM 30.2°F-1.0°C 25.4°F-3.7°C 82% 4.7 mph NE7.6 kmh NE 6.9 mph11.1 kmh 30.04 in1017.3 mb 0.00 in0.0 mm 0.00 in0.0 mm 0.00 in0.0 mm
12:00 PM 31.5°F-0.3°C 24.2°F-4.3°C 74% 5.2 mph ENE8.4 kmh ENE 9.8 mph15.8 kmh 30.04 in1017.3 mb 0.00 in0.0 mm 0.00 in0.0 mm 0.00 in0.0 mm
12:10 PM 32.7°F0.4°C 24.7°F-4.1°C 72% 6.5 mph NE10.5 kmh NE 12.1 mph19.5 kmh 30.04 in1017.3 mb 0.00 in0.0 mm 0.00 in0.0 mm 0.00 in0.0 mm
12:20 PM 32.4°F0.2°C 23.4°F-4.8°C 69% 5.8 mph ENE9.3 kmh ENE 9.2 mph14.8 kmh 30.03 in1016.9 mb 0.00 in0.0 mm 0.00 in0.0 mm 0.00 in0.0 mm
12:30 PM 32.2°F0.1°C 24.2°F-4.3°C 72% 5.1 mph E8.2 kmh E 8.3 mph13.4 kmh 30.04 in1017.3 mb 0.00 in0.0 mm 0.00 in0.0 mm 0.00 in0.0 mm
12:40 PM 32.9°F0.5°C 24.9°F-3.9°C 72% 5.2 mph ESE8.4 kmh ESE 7.6 mph12.2 kmh 30.03 in1016.9 mb 0.00 in0.0 mm 0.00 in0.0 mm 0.00 in0.0 mm
12:50 PM 33.4°F0.8°C 24.0°F-4.4°C 68% 4.7 mph NE7.6 kmh NE 6.0 mph9.7 kmh 30.03 in1016.9 mb 0.00 in0.0 mm 0.00 in0.0 mm 0.00 in0.0 mm
01:00 PM 32.2°F0.1°C 23.2°F-4.9°C 69% 7.7 mph ENE12.4 kmh ENE 10.7 mph17.2 kmh 30.04 in1017.3 mb 0.00 in0.0 mm 0.00 in0.0 mm 0.00 in0.0 mm
01:10 PM 31.6°F-0.2°C 22.7°F-5.2°C 69% 4.4 mph ENE7.1 kmh ENE 9.2 mph14.8 kmh 30.04 in1017.3 mb 0.00 in0.0 mm 0.00 in0.0 mm 0.00 in0.0 mm
01:20 PM 30.9°F-0.6°C 22.3°F-5.4°C 70% 7.3 mph E11.7 kmh E 14.5 mph23.3 kmh 30.03 in1016.9 mb 0.00 in0.0 mm 0.00 in0.0 mm 0.00 in0.0 mm
01:30 PM 32.0°F0.0°C 24.0°F-4.4°C 72% 6.1 mph ENE9.8 kmh ENE 9.8 mph15.8 kmh 30.04 in1017.3 mb 0.00 in0.0 mm 0.00 in0.0 mm 0.00 in0.0 mm
01:40 PM 32.5°F0.3°C 23.2°F-4.9°C 68% 6.8 mph E10.9 kmh E 9.2 mph14.8 kmh 30.03 in1016.9 mb 0.00 in0.0 mm 0.00 in0.0 mm 0.00 in0.0 mm
01:50 PM 32.5°F0.3°C 23.5°F-4.7°C 69% 6.5 mph ENE10.5 kmh ENE 7.6 mph12.2 kmh 30.03 in1016.9 mb 0.00 in0.0 mm 0.00 in0.0 mm 0.00 in0.0 mm
02:00 PM 31.6°F-0.2°C 25.0°F-3.9°C 76% 4.2 mph ENE6.8 kmh ENE 7.6 mph12.2 kmh 30.03 in1016.9 mb 0.00 in0.0 mm 0.00 in0.0 mm 0.00 in0.0 mm
02:10 PM 32.7°F0.4°C 24.0°F-4.4°C 70% 4.8 mph E7.7 kmh E 7.6 mph12.2 kmh 30.02 in1016.6 mb 0.00 in0.0 mm 0.00 in0.0 mm 0.00 in0.0 mm
02:20 PM 33.1°F0.6°C 25.1°F-3.8°C 72% 6.6 mph E10.6 kmh E 7.6 mph12.2 kmh 30.02 in1016.6 mb 0.00 in0.0 mm 0.00 in0.0 mm 0.00 in0.0 mm
02:30 PM 33.3°F0.7°C 25.6°F-3.6°C 73% 5.6 mph NE9.0 kmh NE 9.2 mph14.8 kmh 30.02 in1016.6 mb 0.00 in0.0 mm 0.00 in0.0 mm 0.00 in0.0 mm
02:40 PM 34.0°F1.1°C 25.2°F-3.8°C 70% 5.0 mph NE8.0 kmh NE 6.9 mph11.1 kmh 30.01 in1016.3 mb 0.00 in0.0 mm 0.00 in0.0 mm 0.00 in0.0 mm
02:50 PM 32.9°F0.5°C 23.9°F-4.5°C 69% 6.3 mph NE10.1 kmh NE 10.7 mph17.2 kmh 30.01 in1016.3 mb 0.00 in0.0 mm 0.00 in0.0 mm 0.00 in0.0 mm
03:00 PM 32.2°F0.1°C 23.9°F-4.5°C 71% 7.1 mph NE11.4 kmh NE 9.8 mph15.8 kmh 30.01 in1016.3 mb 0.00 in0.0 mm 0.00 in0.0 mm 0.00 in0.0 mm
03:10 PM 33.3°F0.7°C 24.9°F-3.9°C 71% 5.4 mph E8.7 kmh E 7.6 mph12.2 kmh 30.01 in1016.3 mb 0.00 in0.0 mm 0.00 in0.0 mm 0.00 in0.0 mm
03:20 PM 34.3°F1.3°C 25.6°F-3.6°C 70% 4.4 mph NE7.1 kmh NE 6.0 mph9.7 kmh 30.01 in1016.3 mb 0.00 in0.0 mm 0.00 in0.0 mm 0.00 in0.0 mm
03:30 PM 32.9°F0.5°C 24.6°F-4.1°C 71% 6.1 mph ENE9.8 kmh ENE 9.2 mph14.8 kmh 30.01 in1016.3 mb 0.00 in0.0 mm 0.00 in0.0 mm 0.00 in0.0 mm
03:40 PM 33.6°F0.9°C 24.6°F-4.1°C 69% 6.1 mph NE9.8 kmh NE 11.4 mph18.3 kmh 30.01 in1016.3 mb 0.00 in0.0 mm 0.00 in0.0 mm 0.00 in0.0 mm
03:50 PM 33.3°F0.7°C 23.5°F-4.7°C 67% 5.3 mph NNE8.5 kmh NNE 8.3 mph13.4 kmh 30.00 in1015.9 mb 0.01 in0.3 mm 0.06 in1.5 mm 0.01 in0.3 mm
04:00 PM 33.4°F0.8°C 21.5°F-5.8°C 61% 8.4 mph ENE13.5 kmh ENE 11.4 mph18.3 kmh 30.00 in1015.9 mb 0.01 in0.3 mm 0.00 in0.0 mm 0.01 in0.3 mm
04:10 PM 33.6°F0.9°C 21.6°F-5.8°C 61% 7.2 mph NE11.6 kmh NE 11.4 mph18.3 kmh 30.00 in1015.9 mb 0.02 in0.5 mm 0.06 in1.5 mm 0.02 in0.5 mm
04:20 PM 34.2°F1.2°C 22.1°F-5.5°C 61% 6.7 mph NE10.8 kmh NE 10.7 mph17.2 kmh 30.00 in1015.9 mb 0.04 in1.0 mm 0.12 in3.0 mm 0.04 in1.0 mm
04:30 PM 33.6°F0.9°C 20.0°F-6.7°C 57% 8.2 mph NNE13.2 kmh NNE 12.1 mph19.5 kmh 29.99 in1015.6 mb 0.04 in1.0 mm 0.00 in0.0 mm 0.04 in1.0 mm
04:40 PM 33.6°F0.9°C 20.4°F-6.4°C 58% 7.6 mph E12.2 kmh E 13.6 mph21.9 kmh 29.99 in1015.6 mb 0.05 in1.3 mm 0.06 in1.5 mm 0.05 in1.3 mm
04:50 PM 34.3°F1.3°C 21.1°F-6.1°C 58% 5.4 mph E8.7 kmh E 6.9 mph11.1 kmh 29.99 in1015.6 mb 0.04 in1.0 mm 0.00 in0.0 mm 0.05 in1.3 mm
05:00 PM 35.6°F2.0°C 20.2°F-6.6°C 53% 7.1 mph ENE11.4 kmh ENE 10.7 mph17.2 kmh 29.98 in1015.2 mb 0.04 in1.0 mm 0.00 in0.0 mm 0.05 in1.3 mm
05:10 PM 34.5°F1.4°C 20.0°F-6.7°C 55% 6.3 mph ENE10.1 kmh ENE 9.8 mph15.8 kmh 29.99 in1015.6 mb 0.02 in0.5 mm 0.00 in0.0 mm 0.05 in1.3 mm
05:20 PM 34.5°F1.4°C 20.5°F-6.4°C 56% 7.8 mph E12.6 kmh E 10.7 mph17.2 kmh 29.98 in1015.2 mb 0.02 in0.5 mm 0.00 in0.0 mm 0.06 in1.5 mm
05:30 PM 34.2°F1.2°C 20.5°F-6.4°C 57% 6.9 mph E11.1 kmh E 8.3 mph13.4 kmh 29.99 in1015.6 mb 0.02 in0.5 mm 0.00 in0.0 mm 0.06 in1.5 mm
05:40 PM 34.3°F1.3°C 21.5°F-5.8°C 59% 6.8 mph E10.9 kmh E 7.6 mph12.2 kmh 29.98 in1015.2 mb 0.01 in0.3 mm 0.00 in0.0 mm 0.06 in1.5 mm
05:50 PM 34.2°F1.2°C 22.1°F-5.5°C 61% 6.4 mph NE10.3 kmh NE 9.2 mph14.8 kmh 29.99 in1015.6 mb 0.01 in0.3 mm 0.00 in0.0 mm 0.06 in1.5 mm
06:00 PM 33.8°F1.0°C 22.2°F-5.4°C 62% 6.0 mph E9.7 kmh E 12.1 mph19.5 kmh 30.00 in1015.9 mb 0.01 in0.3 mm 0.00 in0.0 mm 0.06 in1.5 mm
06:10 PM 33.8°F1.0°C 22.9°F-5.1°C 64% 4.9 mph NE7.9 kmh NE 9.2 mph14.8 kmh 29.99 in1015.6 mb 0.01 in0.3 mm 0.00 in0.0 mm 0.06 in1.5 mm
06:20 PM 33.8°F1.0°C 21.8°F-5.7°C 61% 8.8 mph NE14.2 kmh NE 14.5 mph23.3 kmh 29.99 in1015.6 mb 0.00 in0.0 mm 0.00 in0.0 mm 0.06 in1.5 mm
06:30 PM 33.8°F1.0°C 21.8°F-5.7°C 61% 7.2 mph ENE11.6 kmh ENE 10.7 mph17.2 kmh 29.99 in1015.6 mb 0.00 in0.0 mm 0.00 in0.0 mm 0.06 in1.5 mm
06:40 PM 33.6°F0.9°C 22.0°F-5.6°C 62% 6.4 mph NE10.3 kmh NE 9.8 mph15.8 kmh 29.99 in1015.6 mb 0.00 in0.0 mm 0.00 in0.0 mm 0.06 in1.5 mm
06:50 PM 33.6°F0.9°C 22.4°F-5.3°C 63% 5.0 mph E8.0 kmh E 7.6 mph12.2 kmh 29.99 in1015.6 mb 0.00 in0.0 mm 0.00 in0.0 mm 0.06 in1.5 mm
07:00 PM 33.6°F0.9°C 22.4°F-5.3°C 63% 7.2 mph E11.6 kmh E 9.8 mph15.8 kmh 30.00 in1015.9 mb 0.00 in0.0 mm 0.00 in0.0 mm 0.06 in1.5 mm
07:10 PM 33.4°F0.8°C 22.6°F-5.2°C 64% 5.0 mph N8.0 kmh N 8.3 mph13.4 kmh 29.98 in1015.2 mb 0.00 in0.0 mm 0.00 in0.0 mm 0.06 in1.5 mm
07:20 PM 33.4°F0.8°C 21.8°F-5.7°C 62% 3.4 mph ENE5.5 kmh ENE 6.0 mph9.7 kmh 29.99 in1015.6 mb 0.00 in0.0 mm 0.00 in0.0 mm 0.06 in1.5 mm
07:30 PM 33.3°F0.7°C 22.1°F-5.5°C 63% 2.2 mph SE3.5 kmh SE 3.1 mph5.0 kmh 29.98 in1015.2 mb 0.00 in0.0 mm 0.00 in0.0 mm 0.06 in1.5 mm
07:40 PM 32.9°F0.5°C 22.5°F-5.3°C 65% 2.3 mph N3.7 kmh N 5.4 mph8.7 kmh 29.98 in1015.2 mb 0.00 in0.0 mm 0.00 in0.0 mm 0.06 in1.5 mm
07:50 PM 32.4°F0.2°C 22.7°F-5.2°C 67% 2.0 mph SE3.2 kmh SE 4.5 mph7.2 kmh 29.99 in1015.6 mb 0.00 in0.0 mm 0.00 in0.0 mm 0.06 in1.5 mm
08:00 PM 31.8°F-0.1°C 22.8°F-5.1°C 69% 1.2 mph S1.9 kmh S 2.2 mph3.5 kmh 29.98 in1015.2 mb 0.00 in0.0 mm 0.00 in0.0 mm 0.06 in1.5 mm
08:10 PM 31.3°F-0.4°C 24.3°F-4.3°C 75% 1.8 mph SW2.9 kmh SW 3.1 mph5.0 kmh 29.98 in1015.2 mb 0.00 in0.0 mm 0.00 in0.0 mm 0.06 in1.5 mm
08:20 PM 30.6°F-0.8°C 24.5°F-4.2°C 78% 1.6 mph SW2.6 kmh SW 2.2 mph3.5 kmh 29.98 in1015.2 mb 0.00 in0.0 mm 0.00 in0.0 mm 0.06 in1.5 mm
08:30 PM 30.2°F-1.0°C 24.5°F-4.2°C 79% 1.4 mph SW2.3 kmh SW 1.6 mph2.6 kmh 29.98 in1015.2 mb 0.00 in0.0 mm 0.00 in0.0 mm 0.06 in1.5 mm
08:40 PM 30.0°F-1.1°C 24.6°F-4.1°C 80% 0.5 mph SW0.8 kmh SW 1.6 mph2.6 kmh 29.98 in1015.2 mb 0.00 in0.0 mm 0.00 in0.0 mm 0.06 in1.5 mm
08:50 PM 29.7°F-1.3°C 24.3°F-4.3°C 80% Calm Calm -- 29.98 in1015.2 mb 0.00 in0.0 mm 0.00 in0.0 mm 0.06 in1.5 mm
09:00 PM 29.1°F-1.6°C 24.0°F-4.4°C 81% 0.1 mph SW0.2 kmh SW 0.7 mph1.1 kmh 29.97 in1014.9 mb 0.00 in0.0 mm 0.00 in0.0 mm 0.06 in1.5 mm
09:10 PM 28.8°F-1.8°C 24.0°F-4.4°C 82% 0.2 mph E0.3 kmh E 0.7 mph1.1 kmh 29.97 in1014.9 mb 0.00 in0.0 mm 0.00 in0.0 mm 0.06 in1.5 mm
09:20 PM 28.2°F-2.1°C 23.7°F-4.6°C 83% Calm Calm -- 29.97 in1014.9 mb 0.00 in0.0 mm 0.00 in0.0 mm 0.06 in1.5 mm
09:30 PM 27.9°F-2.3°C 23.7°F-4.6°C 84% Calm Calm -- 29.98 in1015.2 mb 0.00 in0.0 mm 0.00 in0.0 mm 0.06 in1.5 mm
09:40 PM 27.3°F-2.6°C 23.4°F-4.8°C 85% Calm Calm -- 29.97 in1014.9 mb 0.00 in0.0 mm 0.00 in0.0 mm 0.06 in1.5 mm
09:50 PM 27.1°F-2.7°C 23.5°F-4.7°C 86% Calm Calm 0.7 mph1.1 kmh 29.97 in1014.9 mb 0.00 in0.0 mm 0.00 in0.0 mm 0.06 in1.5 mm
10:00 PM 27.1°F-2.7°C 23.8°F-4.6°C 87% 0.7 mph WSW1.1 kmh WSW 1.6 mph2.6 kmh 29.97 in1014.9 mb 0.00 in0.0 mm 0.00 in0.0 mm 0.06 in1.5 mm
10:10 PM 27.1°F-2.7°C 23.8°F-4.6°C 87% 0.7 mph SW1.1 kmh SW 1.6 mph2.6 kmh 29.97 in1014.9 mb 0.00 in0.0 mm 0.00 in0.0 mm 0.06 in1.5 mm
10:20 PM 26.8°F-2.9°C 23.5°F-4.7°C 87% 0.7 mph SW1.1 kmh SW 1.6 mph2.6 kmh 29.97 in1014.9 mb 0.00 in0.0 mm 0.00 in0.0 mm 0.06 in1.5 mm
10:30 PM 26.8°F-2.9°C 23.5°F-4.7°C 87% Calm Calm 0.7 mph1.1 kmh 29.97 in1014.9 mb 0.00 in0.0 mm 0.00 in0.0 mm 0.06 in1.5 mm
10:40 PM 26.4°F-3.1°C 23.4°F-4.8°C 88% Calm Calm 1.6 mph2.6 kmh 29.97 in1014.9 mb 0.00 in0.0 mm 0.00 in0.0 mm 0.06 in1.5 mm
10:50 PM 26.1°F-3.3°C 23.0°F-5.0°C 88% 0.1 mph NNE0.2 kmh NNE 1.6 mph2.6 kmh 29.96 in1014.6 mb 0.00 in0.0 mm 0.00 in0.0 mm 0.06 in1.5 mm
11:00 PM 25.7°F-3.5°C 22.9°F-5.1°C 89% Calm Calm -- 29.96 in1014.6 mb 0.00 in0.0 mm 0.00 in0.0 mm 0.06 in1.5 mm
11:10 PM 25.5°F-3.6°C 22.8°F-5.1°C 89% Calm Calm -- 29.97 in1014.9 mb 0.00 in0.0 mm 0.00 in0.0 mm 0.06 in1.5 mm
11:20 PM 25.3°F-3.7°C 22.8°F-5.1°C 90% Calm Calm -- 29.96 in1014.6 mb 0.00 in0.0 mm 0.00 in0.0 mm 0.06 in1.5 mm
11:30 PM 25.3°F-3.7°C 22.8°F-5.1°C 90% Calm Calm -- 29.96 in1014.6 mb 0.00 in0.0 mm 0.00 in0.0 mm 0.06 in1.5 mm
11:40 PM 25.3°F-3.7°C 23.1°F-4.9°C 91% 0.2 mph NW0.3 kmh NW 0.7 mph1.1 kmh 29.96 in1014.6 mb 0.00 in0.0 mm 0.00 in0.0 mm 0.06 in1.5 mm
11:50 PM 25.5°F-3.6°C 23.3°F-4.8°C 91% 0.9 mph SW1.4 kmh SW 1.6 mph2.6 kmh 29.96 in1014.6 mb 0.00 in0.0 mm 0.00 in0.0 mm 0.06 in1.5 mm